createdAt,value
2017-05-06T00:00:29.266Z,15.77
2017-05-06T00:02:59.040Z,14.48
2017-05-06T00:05:28.020Z,15.05
2017-05-06T00:07:57.328Z,15.07
2017-05-06T00:10:26.333Z,15.50
2017-05-06T00:12:55.306Z,14.83
2017-05-06T00:15:24.531Z,14.60
2017-05-06T00:17:53.548Z,14.40
2017-05-06T00:20:22.538Z,12.88
2017-05-06T00:22:52.267Z,14.03
2017-05-06T00:25:21.271Z,15.42
2017-05-06T00:27:50.547Z,13.68
2017-05-06T00:30:19.551Z,14.63
2017-05-06T00:32:48.534Z,15.53
2017-05-06T00:35:17.890Z,12.97
2017-05-06T00:37:46.880Z,13.05
2017-05-06T00:40:15.863Z,12.65
2017-05-06T00:42:44.855Z,14.88
2017-05-06T00:45:13.821Z,12.48
2017-05-06T00:47:43.167Z,11.43
2017-05-06T00:50:12.139Z,13.87
2017-05-06T00:52:41.116Z,13.02
2017-05-06T00:55:10.364Z,12.27
2017-05-06T00:57:39.378Z,12.58
2017-05-06T01:00:08.417Z,11.93
2017-05-06T01:02:37.713Z,14.03
2017-05-06T01:05:06.708Z,12.73
2017-05-06T01:07:35.682Z,10.17
2017-05-06T01:10:05.000Z,10.15
2017-05-06T01:12:33.990Z,10.98
2017-05-06T01:15:02.964Z,9.43
2017-05-06T01:17:31.970Z,9.92
2017-05-06T01:20:00.958Z,10.95
2017-05-06T01:22:30.233Z,9.88
2017-05-06T01:24:59.208Z,10.43
2017-05-06T01:27:28.183Z,9.83
2017-05-06T01:29:57.159Z,11.40
2017-05-06T01:32:26.898Z,10.12
2017-05-06T01:34:56.188Z,11.30
2017-05-06T01:37:25.202Z,11.55
2017-05-06T01:39:54.205Z,11.25
2017-05-06T01:42:23.196Z,11.30
2017-05-06T01:44:52.171Z,10.63
2017-05-06T01:47:21.211Z,9.95
2017-05-06T01:49:50.193Z,10.80
2017-05-06T01:52:19.472Z,11.92
2017-05-06T01:54:48.451Z,10.85
2017-05-06T01:57:17.421Z,10.15
2017-05-06T01:59:46.415Z,9.25
2017-05-06T02:02:15.408Z,9.45
2017-05-06T02:04:44.741Z,8.43
2017-05-06T02:07:13.726Z,8.55
2017-05-06T02:09:42.691Z,8.88
2017-05-06T02:12:11.692Z,10.63
2017-05-06T02:14:40.684Z,12.47
2017-05-06T02:17:10.013Z,12.30
2017-05-06T02:19:38.924Z,12.25
2017-05-06T02:22:07.924Z,11.85
2017-05-06T02:24:37.288Z,11.07
2017-05-06T02:27:06.270Z,11.42
2017-05-06T02:29:35.264Z,14.97
2017-05-06T02:32:04.261Z,17.65
2017-05-06T02:34:33.243Z,18.43
2017-05-06T02:37:02.558Z,25.22
2017-05-06T02:39:31.538Z,20.62
2017-05-06T02:42:00.530Z,17.95
2017-05-06T02:44:29.829Z,16.45
2017-05-06T02:46:58.817Z,13.23
2017-05-06T02:49:27.804Z,12.30
2017-05-06T02:51:57.155Z,12.67
2017-05-06T02:54:26.178Z,12.07
2017-05-06T02:56:55.062Z,10.60
2017-05-06T02:59:24.094Z,10.80
2017-05-06T03:01:53.080Z,11.13
2017-05-06T03:04:22.064Z,11.45
2017-05-06T03:06:51.054Z,10.98
2017-05-06T03:09:20.051Z,10.43
2017-05-06T03:11:49.037Z,10.17
2017-05-06T03:14:18.349Z,10.33
2017-05-06T03:16:47.332Z,9.78
2017-05-06T03:19:16.319Z,11.77
2017-05-06T03:21:45.756Z,12.23
2017-05-06T03:24:15.460Z,10.85
2017-05-06T03:26:45.549Z,9.07
2017-05-06T03:29:14.630Z,11.13
2017-05-06T03:31:43.615Z,9.42
2017-05-06T03:34:12.629Z,10.85
2017-05-06T03:36:41.610Z,11.73
2017-05-06T03:39:10.973Z,10.77
2017-05-06T03:41:39.961Z,9.70
2017-05-06T03:44:08.943Z,9.73
2017-05-06T03:46:38.258Z,10.45
2017-05-06T03:49:07.227Z,9.53
2017-05-06T03:51:36.197Z,8.52
2017-05-06T03:54:06.253Z,8.22
2017-05-06T03:56:35.233Z,10.30
2017-05-06T03:59:04.194Z,8.05
2017-05-06T04:01:33.937Z,8.75
2017-05-06T04:04:02.819Z,8.52
2017-05-06T04:06:32.192Z,8.80
2017-05-06T04:09:01.894Z,8.78
2017-05-06T04:11:30.845Z,9.10
2017-05-06T04:13:59.873Z,9.55
2017-05-06T04:16:28.845Z,9.33
2017-05-06T04:18:57.791Z,9.37
2017-05-06T04:21:26.747Z,10.80
2017-05-06T04:23:56.013Z,9.62
2017-05-06T04:26:24.956Z,8.90
2017-05-06T04:28:54.688Z,8.18
2017-05-06T04:31:23.708Z,9.97
2017-05-06T04:33:52.655Z,10.00
2017-05-06T04:36:21.642Z,10.62
2017-05-06T04:38:50.614Z,9.30
2017-05-06T04:41:20.605Z,10.93
2017-05-06T04:43:49.503Z,11.78
2017-05-06T04:46:19.125Z,10.68
2017-05-06T04:48:49.174Z,13.00
2017-05-06T04:51:18.156Z,12.47
2017-05-06T04:53:47.494Z,13.18
2017-05-06T04:56:16.454Z,13.50
2017-05-06T04:58:45.413Z,10.82
2017-05-06T05:01:15.486Z,12.83
2017-05-06T05:03:44.455Z,12.52
2017-05-06T05:06:13.425Z,11.83
2017-05-06T05:08:42.412Z,11.82
2017-05-06T05:11:11.384Z,11.13
2017-05-06T05:13:40.754Z,11.45
2017-05-06T05:16:09.741Z,13.50
2017-05-06T05:18:38.703Z,13.67
2017-05-06T05:21:08.031Z,13.03
2017-05-06T05:23:37.013Z,13.60
2017-05-06T05:26:05.979Z,16.90
2017-05-06T05:28:34.958Z,17.40
2017-05-06T05:31:03.920Z,19.43
2017-05-06T05:33:32.896Z,16.45
2017-05-06T05:36:01.872Z,17.58
2017-05-06T05:38:31.129Z,17.13
2017-05-06T05:41:00.116Z,16.75
2017-05-06T05:43:29.819Z,14.60
2017-05-06T05:45:59.890Z,13.95
2017-05-06T05:48:28.849Z,13.07
2017-05-06T05:50:57.821Z,10.80
2017-05-06T05:53:27.537Z,10.35
2017-05-06T05:55:56.501Z,10.77
2017-05-06T05:58:26.519Z,10.58
2017-05-06T06:00:55.494Z,9.87
2017-05-06T06:03:24.460Z,9.10
2017-05-06T06:05:53.866Z,7.90
2017-05-06T06:08:22.843Z,7.33
2017-05-06T06:10:51.777Z,7.98
2017-05-06T06:13:21.126Z,6.58
2017-05-06T06:15:50.091Z,7.23
2017-05-06T06:18:19.064Z,6.67
2017-05-06T06:20:49.050Z,6.60
2017-05-06T06:23:18.023Z,6.85
2017-05-06T06:25:46.977Z,7.22
2017-05-06T06:28:17.029Z,7.30
2017-05-06T06:30:46.003Z,6.50
2017-05-06T06:33:15.301Z,6.55
2017-05-06T06:35:44.265Z,5.92
2017-05-06T06:38:13.228Z,7.28
2017-05-06T06:40:42.499Z,7.78
2017-05-06T06:43:11.453Z,6.05
2017-05-06T06:45:40.430Z,7.57
2017-05-06T06:48:10.158Z,6.35
2017-05-06T06:50:39.123Z,5.73
2017-05-06T06:53:09.204Z,5.77
2017-05-06T06:55:38.157Z,7.20
2017-05-06T06:58:07.166Z,7.12
2017-05-06T07:00:36.964Z,6.48
2017-05-06T07:03:05.933Z,6.97
2017-05-06T07:05:35.922Z,6.17
2017-05-06T07:08:04.926Z,5.65
2017-05-06T07:10:34.620Z,4.73
2017-05-06T07:13:03.593Z,5.35
2017-05-06T07:15:32.600Z,4.63
2017-05-06T07:18:01.509Z,5.78
2017-05-06T07:20:31.220Z,5.78
2017-05-06T07:23:01.297Z,4.80
2017-05-06T07:25:30.278Z,5.84
2017-05-06T07:27:59.273Z,5.98
2017-05-06T07:30:28.513Z,5.27
2017-05-06T07:32:58.293Z,5.52
2017-05-06T07:35:27.176Z,7.13
2017-05-06T07:37:56.179Z,7.22
2017-05-06T07:40:25.161Z,6.52
2017-05-06T07:42:54.395Z,6.03
2017-05-06T07:45:24.108Z,6.60
2017-05-06T07:47:54.183Z,5.78
2017-05-06T07:50:23.187Z,5.88
2017-05-06T07:52:52.164Z,4.98
2017-05-06T07:55:21.150Z,5.78
2017-05-06T07:57:50.179Z,5.65
2017-05-06T08:00:20.365Z,5.18
2017-05-06T08:02:49.325Z,4.72
2017-05-06T08:05:18.294Z,5.50
2017-05-06T08:07:47.654Z,5.32
2017-05-06T08:10:16.626Z,5.65
2017-05-06T08:12:45.599Z,4.60
2017-05-06T08:15:14.963Z,5.87
2017-05-06T08:17:44.655Z,5.63
2017-05-06T08:20:13.643Z,4.62
2017-05-06T08:22:42.646Z,5.18
2017-05-06T08:25:12.360Z,4.87
2017-05-06T08:27:42.443Z,5.32
2017-05-06T08:30:11.415Z,6.18
2017-05-06T08:32:40.441Z,5.90
2017-05-06T08:35:10.270Z,5.15
2017-05-06T08:37:40.003Z,5.28
2017-05-06T08:40:08.968Z,5.57
2017-05-06T08:42:38.696Z,6.14
2017-05-06T08:45:08.053Z,5.72
2017-05-06T08:47:37.018Z,6.95
2017-05-06T08:50:05.973Z,7.16
2017-05-06T08:52:35.259Z,6.22
2017-05-06T08:55:04.875Z,6.98
2017-05-06T08:57:33.872Z,5.10
2017-05-06T09:00:02.859Z,5.70
2017-05-06T09:02:32.553Z,5.40
2017-05-06T09:05:02.654Z,5.20
2017-05-06T09:07:31.624Z,5.34
2017-05-06T09:10:00.588Z,5.62
2017-05-06T09:12:29.591Z,4.84
2017-05-06T09:14:58.554Z,4.48
2017-05-06T09:17:27.866Z,5.10
2017-05-06T09:19:56.851Z,5.56
2017-05-06T09:22:25.797Z,4.12
2017-05-06T09:24:55.184Z,4.18
2017-05-06T09:27:24.151Z,3.68
2017-05-06T09:29:53.113Z,3.74
2017-05-06T09:32:22.472Z,4.16
2017-05-06T09:34:51.431Z,3.92
2017-05-06T09:37:20.387Z,3.18
2017-05-06T09:39:50.090Z,2.58
2017-05-06T09:42:19.795Z,2.98
2017-05-06T09:44:49.790Z,3.72
2017-05-06T09:47:18.749Z,3.00
2017-05-06T09:49:47.719Z,4.34
2017-05-06T09:52:16.783Z,4.16
2017-05-06T09:54:46.486Z,3.96
2017-05-06T09:57:16.480Z,3.86
2017-05-06T09:59:45.456Z,3.32
2017-05-06T10:02:14.425Z,2.94
2017-05-06T10:04:43.739Z,4.58
2017-05-06T10:07:12.674Z,3.08
2017-05-06T10:09:42.366Z,2.76
2017-05-06T10:12:11.328Z,3.52
2017-05-06T10:14:40.281Z,3.20
2017-05-06T10:17:09.625Z,3.32
2017-05-06T10:19:38.569Z,2.84
2017-05-06T10:22:07.527Z,3.28
2017-05-06T10:24:36.505Z,3.78
2017-05-06T10:27:05.450Z,3.10
2017-05-06T10:29:34.910Z,3.62
2017-05-06T10:32:03.869Z,2.70
2017-05-06T10:34:32.842Z,2.50
2017-05-06T10:37:01.817Z,2.22
2017-05-06T10:39:30.787Z,1.72
2017-05-06T10:42:00.519Z,1.88
2017-05-06T10:44:29.471Z,1.86
2017-05-06T10:46:58.693Z,2.22
2017-05-06T10:49:27.664Z,2.30
2017-05-06T10:51:56.615Z,1.86
2017-05-06T10:54:25.576Z,1.94
2017-05-06T10:56:54.522Z,1.52
2017-05-06T10:59:23.468Z,1.76
2017-05-06T11:01:52.783Z,1.98
2017-05-06T11:04:21.731Z,1.74
2017-05-06T11:06:51.427Z,2.14
2017-05-06T11:09:21.512Z,1.36
2017-05-06T11:11:50.469Z,2.80
2017-05-06T11:14:19.414Z,1.74
2017-05-06T11:16:48.398Z,2.32
2017-05-06T11:19:17.357Z,1.52
2017-05-06T11:21:46.676Z,1.22
2017-05-06T11:24:15.646Z,1.40
2017-05-06T11:26:44.582Z,1.20
2017-05-06T11:29:13.892Z,1.66
2017-05-06T11:31:43.615Z,1.32
2017-05-06T11:34:12.978Z,1.40
2017-05-06T11:36:41.918Z,1.08
2017-05-06T11:39:10.874Z,1.40
2017-05-06T11:41:40.586Z,0.98
2017-05-06T11:44:10.286Z,1.12
2017-05-06T11:46:39.654Z,1.30
2017-05-06T11:49:08.672Z,1.10
2017-05-06T11:51:37.619Z,1.28
2017-05-06T11:54:06.613Z,1.10
2017-05-06T11:56:35.627Z,1.18
2017-05-06T11:59:04.858Z,1.12
2017-05-06T12:01:34.555Z,1.20
2017-05-06T12:04:03.510Z,1.18
2017-05-06T12:06:32.458Z,1.28
2017-05-06T12:09:01.412Z,1.18
2017-05-06T12:11:30.457Z,0.88
2017-05-06T12:13:59.416Z,1.14
2017-05-06T12:16:29.138Z,1.20
2017-05-06T12:18:58.116Z,1.04
2017-05-06T12:21:28.188Z,0.70
2017-05-06T12:23:57.142Z,1.00
2017-05-06T12:26:26.126Z,0.76
2017-05-06T12:28:55.494Z,1.04
2017-05-06T12:31:24.490Z,1.06
2017-05-06T12:33:53.442Z,1.02
2017-05-06T12:36:22.417Z,0.84
2017-05-06T12:38:51.361Z,0.96
2017-05-06T12:41:20.648Z,1.02
2017-05-06T12:43:49.616Z,1.00
2017-05-06T12:46:18.578Z,1.70
2017-05-06T12:48:47.535Z,1.32
2017-05-06T12:51:16.514Z,1.00
2017-05-06T12:53:45.822Z,0.70
2017-05-06T12:56:14.773Z,0.80
2017-05-06T12:58:43.759Z,0.84
2017-05-06T13:01:12.757Z,0.88
2017-05-06T13:03:41.787Z,0.98
2017-05-06T13:06:11.058Z,0.80
2017-05-06T13:08:40.013Z,0.70
2017-05-06T13:11:08.972Z,0.70
2017-05-06T13:13:37.867Z,0.70
2017-05-06T13:16:06.819Z,0.80
2017-05-06T13:18:36.122Z,1.14
2017-05-06T13:21:05.040Z,1.14
2017-05-06T13:23:33.994Z,0.94
2017-05-06T13:26:02.984Z,0.98
2017-05-06T13:28:31.948Z,1.00
2017-05-06T13:31:00.841Z,1.44
2017-05-06T13:33:29.830Z,1.34
2017-05-06T13:35:59.081Z,1.16
2017-05-06T13:38:28.017Z,1.30
2017-05-06T13:40:56.975Z,1.66
2017-05-06T13:43:27.177Z,1.16
2017-05-06T13:45:56.124Z,1.22
2017-05-06T13:48:25.484Z,1.18
2017-05-06T13:50:55.198Z,1.44
2017-05-06T13:53:24.934Z,1.44
2017-05-06T13:55:54.189Z,1.40
2017-05-06T13:58:23.313Z,1.42
2017-05-06T14:00:52.277Z,1.38
2017-05-06T14:03:21.545Z,1.04
2017-05-06T14:05:56.063Z,1.48
2017-05-06T14:08:31.111Z,2.50
2017-05-06T14:11:07.096Z,2.16
2017-05-06T14:13:42.154Z,3.12
2017-05-06T14:16:17.607Z,3.52
2017-05-06T14:18:52.668Z,2.60
2017-05-06T14:21:27.930Z,2.10
2017-05-06T14:24:02.835Z,2.14
2017-05-06T14:26:38.790Z,2.26
2017-05-06T14:29:14.223Z,2.98
2017-05-06T14:31:49.521Z,2.70
2017-05-06T14:34:24.461Z,2.84
2017-05-06T14:36:59.789Z,2.58
2017-05-06T14:39:35.127Z,3.42
2017-05-06T14:42:10.531Z,2.80
2017-05-06T14:44:45.562Z,2.48
2017-05-06T14:47:14.520Z,2.48
2017-05-06T14:49:43.489Z,3.06
2017-05-06T14:52:12.486Z,2.24
2017-05-06T14:54:47.011Z,2.62
2017-05-06T14:57:21.726Z,1.94
2017-05-06T14:59:57.026Z,3.00
2017-05-06T15:02:32.864Z,2.90
2017-05-06T15:05:07.639Z,2.72
2017-05-06T15:07:42.599Z,3.18
2017-05-06T15:10:17.890Z,3.18
2017-05-06T15:12:52.688Z,3.02
2017-05-06T15:15:28.042Z,2.72
2017-05-06T15:18:03.035Z,3.20
2017-05-06T15:20:37.687Z,3.44
2017-05-06T15:23:12.696Z,3.28
2017-05-06T15:25:47.522Z,3.12
2017-05-06T15:28:21.658Z,3.62
2017-05-06T15:30:56.796Z,3.68
2017-05-06T15:33:32.451Z,4.48
2017-05-06T15:36:07.886Z,3.52
2017-05-06T15:38:43.004Z,3.90
2017-05-06T15:41:18.276Z,3.52
2017-05-06T15:43:47.056Z,3.64
2017-05-06T15:46:15.996Z,3.34
2017-05-06T15:48:44.954Z,3.72
2017-05-06T15:51:14.675Z,3.32
2017-05-06T15:53:43.616Z,2.90
2017-05-06T15:56:12.574Z,3.44
2017-05-06T15:58:41.558Z,3.44
2017-05-06T16:01:10.881Z,3.12
2017-05-06T16:03:39.904Z,3.20
2017-05-06T16:06:09.643Z,3.10
2017-05-06T16:08:38.995Z,3.46
2017-05-06T16:11:07.959Z,2.88
2017-05-06T16:13:36.922Z,3.14
2017-05-06T16:16:05.895Z,3.08
2017-05-06T16:18:35.590Z,3.60
2017-05-06T16:21:04.861Z,2.76
2017-05-06T16:23:33.840Z,2.92
2017-05-06T16:26:02.791Z,2.98
2017-05-06T16:28:32.510Z,3.02
2017-05-06T16:31:01.483Z,3.10
2017-05-06T16:33:31.533Z,2.94
2017-05-06T16:36:00.485Z,2.96
2017-05-06T16:38:30.188Z,3.20
2017-05-06T16:40:59.167Z,2.78
2017-05-06T16:43:28.135Z,2.76
2017-05-06T16:45:57.384Z,2.80
2017-05-06T16:48:27.491Z,3.08
2017-05-06T16:50:56.469Z,2.92
2017-05-06T16:53:26.965Z,3.12
2017-05-06T16:55:55.948Z,3.28
2017-05-06T16:58:24.935Z,2.92
2017-05-06T17:00:53.922Z,3.08
2017-05-06T17:03:23.177Z,3.44
2017-05-06T17:05:52.890Z,3.08
2017-05-06T17:08:22.579Z,3.38
2017-05-06T17:10:51.874Z,3.10
2017-05-06T17:13:20.841Z,2.74
2017-05-06T17:15:49.825Z,3.12
2017-05-06T17:18:19.121Z,3.10
2017-05-06T17:20:48.083Z,2.90
2017-05-06T17:23:17.039Z,2.78
2017-05-06T17:25:46.044Z,3.36
2017-05-06T17:28:16.145Z,2.68
2017-05-06T17:30:45.015Z,2.42
2017-05-06T17:33:14.707Z,2.60
2017-05-06T17:35:43.716Z,3.14
2017-05-06T17:38:12.700Z,2.92
2017-05-06T17:40:42.000Z,2.80
2017-05-06T17:43:10.961Z,3.38
2017-05-06T17:45:39.928Z,3.08
2017-05-06T17:48:10.014Z,5.88
2017-05-06T17:50:39.129Z,5.92
2017-05-06T17:53:08.867Z,8.14
2017-05-06T17:55:37.832Z,5.24
2017-05-06T17:58:07.534Z,3.42
2017-05-06T18:00:36.508Z,3.58
2017-05-06T18:03:05.895Z,2.96
2017-05-06T18:05:34.893Z,2.74
2017-05-06T18:08:03.858Z,3.58
2017-05-06T18:10:33.097Z,3.06
2017-05-06T18:13:02.067Z,3.40
2017-05-06T18:15:31.042Z,3.90
2017-05-06T18:18:00.366Z,4.50
2017-05-06T18:20:29.316Z,4.48
2017-05-06T18:22:58.265Z,3.26
2017-05-06T18:25:27.244Z,2.72
2017-05-06T18:27:56.191Z,2.94
2017-05-06T18:30:25.184Z,3.00
2017-05-06T18:32:54.141Z,2.34
2017-05-06T18:35:23.893Z,2.68
2017-05-06T18:37:52.788Z,2.38
2017-05-06T18:40:22.102Z,3.30
2017-05-06T18:42:51.086Z,3.12
2017-05-06T18:45:20.093Z,3.16
2017-05-06T18:47:49.082Z,3.36
2017-05-06T18:50:18.093Z,3.30
2017-05-06T18:52:48.088Z,2.76
2017-05-06T18:55:17.041Z,3.04
2017-05-06T18:57:45.989Z,3.26
2017-05-06T19:00:16.076Z,3.16
2017-05-06T19:02:45.048Z,3.10
2017-05-06T19:05:14.021Z,3.52
2017-05-06T19:07:43.033Z,3.60
2017-05-06T19:10:12.012Z,3.22
2017-05-06T19:12:40.993Z,3.30
2017-05-06T19:15:09.963Z,3.38
2017-05-06T19:17:39.945Z,3.04
2017-05-06T19:20:08.916Z,3.50
2017-05-06T19:22:37.874Z,3.00
2017-05-06T19:25:06.881Z,3.06
2017-05-06T19:27:35.854Z,3.28
2017-05-06T19:30:05.167Z,3.54
2017-05-06T19:32:34.137Z,3.08
2017-05-06T19:35:03.120Z,3.54
2017-05-06T19:37:32.386Z,3.72
2017-05-06T19:40:01.361Z,2.92
2017-05-06T19:42:30.248Z,3.96
2017-05-06T19:44:59.995Z,2.94
2017-05-06T19:47:29.745Z,3.66
2017-05-06T19:49:58.754Z,4.02
2017-05-06T19:52:27.752Z,3.34
2017-05-06T19:54:56.759Z,3.58
2017-05-06T19:57:25.722Z,3.68
2017-05-06T19:59:55.192Z,3.94
2017-05-06T20:02:24.164Z,3.42
2017-05-06T20:04:53.902Z,3.46
2017-05-06T20:07:22.894Z,2.86
2017-05-06T20:09:52.238Z,3.30
2017-05-06T20:12:21.199Z,3.62
2017-05-06T20:14:50.183Z,3.80
2017-05-06T20:17:19.424Z,3.42
2017-05-06T20:19:48.301Z,3.74
2017-05-06T20:22:18.047Z,4.10
2017-05-06T20:24:47.419Z,3.66
2017-05-06T20:27:16.372Z,3.74
2017-05-06T20:29:45.433Z,3.42
2017-05-06T20:32:15.156Z,4.00
2017-05-06T20:34:44.095Z,3.06
2017-05-06T20:37:13.375Z,3.16
2017-05-06T20:39:42.348Z,3.18
2017-05-06T20:42:11.301Z,3.14
2017-05-06T20:44:41.378Z,2.82
2017-05-06T20:47:10.331Z,2.72
2017-05-06T20:49:39.313Z,3.44
2017-05-06T20:52:08.654Z,2.74
2017-05-06T20:54:37.626Z,3.64
2017-05-06T20:57:06.593Z,3.76
2017-05-06T20:59:35.855Z,4.06
2017-05-06T21:02:04.865Z,4.64
2017-05-06T21:04:34.591Z,4.66
2017-05-06T21:07:03.967Z,4.42
2017-05-06T21:09:32.924Z,4.82
2017-05-06T21:12:01.873Z,5.68
2017-05-06T21:14:30.868Z,6.76
2017-05-06T21:16:59.854Z,6.10
2017-05-06T21:19:28.856Z,5.70
2017-05-06T21:21:57.831Z,6.60
2017-05-06T21:24:26.935Z,6.46
2017-05-06T21:26:55.890Z,6.94
2017-05-06T21:29:25.166Z,6.36
2017-05-06T21:31:54.130Z,6.84
2017-05-06T21:34:23.182Z,6.98
2017-05-06T21:36:52.929Z,6.30
2017-05-06T21:39:21.906Z,6.20
2017-05-06T21:41:51.242Z,5.96
2017-05-06T21:44:20.216Z,5.50
2017-05-06T21:46:49.167Z,5.30
2017-05-06T21:49:19.245Z,5.40
2017-05-06T21:51:48.218Z,4.80
2017-05-06T21:54:17.191Z,5.28
2017-05-06T21:56:46.434Z,5.44
2017-05-06T21:59:15.428Z,6.58
2017-05-06T22:01:44.403Z,5.82
2017-05-06T22:04:13.361Z,6.72
2017-05-06T22:06:42.317Z,7.20
2017-05-06T22:09:12.389Z,7.76
2017-05-06T22:11:41.397Z,7.24
2017-05-06T22:14:10.361Z,7.08
2017-05-06T22:16:39.679Z,7.58
2017-05-06T22:19:08.677Z,7.54
2017-05-06T22:21:37.633Z,6.84
2017-05-06T22:24:06.954Z,7.78
2017-05-06T22:26:35.921Z,8.00
2017-05-06T22:29:04.897Z,7.30
2017-05-06T22:31:33.865Z,6.40
2017-05-06T22:34:03.564Z,7.22
2017-05-06T22:36:33.565Z,7.10
2017-05-06T22:39:02.545Z,7.16
2017-05-06T22:41:31.523Z,7.20
2017-05-06T22:44:00.515Z,7.88
2017-05-06T22:46:29.495Z,6.34
2017-05-06T22:48:58.483Z,6.60
2017-05-06T22:51:27.450Z,6.22
2017-05-06T22:53:56.440Z,6.70
2017-05-06T22:56:25.415Z,7.02
2017-05-06T22:58:55.150Z,6.58
2017-05-06T23:01:24.144Z,7.04
2017-05-06T23:03:53.134Z,6.84
2017-05-06T23:06:22.106Z,7.12
2017-05-06T23:08:51.833Z,6.75
2017-05-06T23:11:20.805Z,8.82
2017-05-06T23:13:50.889Z,7.43
2017-05-06T23:16:20.612Z,7.87
2017-05-06T23:18:49.580Z,7.63
2017-05-06T23:21:18.862Z,7.57
2017-05-06T23:23:47.859Z,6.97
2017-05-06T23:26:16.889Z,7.20
2017-05-06T23:28:46.614Z,8.17
2017-05-06T23:31:32.448Z,7.52
2017-05-06T23:34:01.722Z,8.52
2017-05-06T23:36:30.688Z,7.92
2017-05-06T23:38:59.751Z,8.10
2017-05-06T23:41:29.019Z,8.17
2017-05-06T23:43:58.140Z,9.05
2017-05-06T23:46:27.093Z,8.17
2017-05-06T23:48:56.426Z,8.58
2017-05-06T23:51:25.390Z,7.27
2017-05-06T23:53:54.333Z,7.63
2017-05-06T23:56:23.977Z,7.53
2017-05-06T23:58:52.960Z,7.53
